Time;durP1;ratioP1;P1;durP2;ratioP2;P2;SDS_P1;SDS_P2;PMS_P1;PMS_P2;Temp;Humidity;BMP_temperature;BMP_pressure;BME280_temperature;BME280_humidity;BME280_pressure;Samples;Min_cycle;Max_cycle;Signal;HPM_P1;HPM_P2
2022/06/09 00:01:23;;;;;;;1.65;1.55;;;21.80;53.60;;;20.22;55.84;100295.69;12240092;19;20023;-77
2022/06/09 00:05:26;;;;;;;1.35;1.25;;;21.80;53.70;;;20.14;55.46;100277.06;12233911;19;20048;-77
2022/06/09 00:09:34;;;;;;;1.65;1.55;;;22.00;53.60;;;20.27;55.74;100299.50;12238904;19;20378;-78
2022/06/09 00:13:35;;;;;;;3.08;1.40;;;22.00;53.70;;;20.24;55.24;100275.97;12236054;19;20014;-77
2022/06/09 00:17:37;;;;;;;1.40;1.30;;;21.90;53.50;;;20.30;55.72;100280.63;12234085;19;20737;-77
2022/06/09 00:21:39;;;;;;;1.77;1.67;;;22.00;53.70;;;20.32;55.72;100275.19;12237700;19;20017;-78
2022/06/09 00:25:41;;;;;;;1.23;1.20;;;22.00;53.80;;;20.31;55.75;100269.06;12239976;19;20052;-78
2022/06/09 00:29:43;;;;;;;1.20;1.20;;;22.20;53.90;;;20.37;55.85;100258.81;12248739;19;20082;-78
2022/06/09 00:33:44;;;;;;;1.17;1.08;;;22.30;54.00;;;20.40;55.59;100269.91;12247216;19;20106;-78
2022/06/09 00:37:46;;;;;;;1.65;1.30;;;22.20;53.90;;;20.44;55.90;100259.81;12245674;19;20006;-77
2022/06/09 00:41:48;;;;;;;1.50;1.40;;;22.10;54.00;;;20.44;55.82;100257.16;12248198;19;20021;-78
2022/06/09 00:46:17;;;;;;;2.28;1.23;;;22.20;54.00;;;20.54;56.13;100269.31;12244110;19;20015;-77
2022/06/09 00:50:24;;;;;;;1.30;1.30;;;22.20;54.20;;;20.49;55.99;100276.91;12249818;19;20014;-78
2022/06/09 00:54:45;;;;;;;1.23;1.17;;;22.20;54.00;;;20.37;56.29;100256.16;12248315;19;20479;-78
2022/06/09 00:58:51;;;;;;;1.50;1.40;;;22.20;54.30;;;20.25;56.23;100248.47;12245471;19;20018;-78
2022/06/09 01:02:56;;;;;;;1.30;1.20;;;22.10;54.20;;;20.29;55.97;100265.72;12247400;19;20472;-79
2022/06/09 01:07:19;;;;;;;1.60;1.40;;;22.10;54.20;;;20.40;56.45;100280.53;12243512;19;20085;-78
2022/06/09 01:11:22;;;;;;;1.50;1.40;;;22.10;54.20;;;20.33;55.93;100282.13;12248073;19;20413;-78
2022/06/09 01:15:50;;;;;;;2.08;1.30;;;22.00;54.00;;;20.27;56.11;100274.81;12234846;19;20026;-78
2022/06/09 01:19:58;;;;;;;1.42;1.33;;;22.10;54.20;;;20.36;56.43;100291.59;12247361;19;20026;-78
2022/06/09 01:24:19;;;;;;;2.05;1.50;;;22.00;54.20;;;20.21;56.43;100278.94;12247512;19;20505;-78
2022/06/09 01:28:52;;;;;;;1.40;1.30;;;22.00;54.30;;;20.28;56.13;100306.50;12241197;19;20018;-78
2022/06/09 01:33:23;;;;;;;1.30;1.30;;;22.00;54.40;;;20.30;56.46;100307.16;12245551;19;20031;-78
2022/06/09 01:37:40;;;;;;;1.02;1.02;;;22.10;54.10;;;20.27;56.48;100310.13;12239474;19;20021;-78
2022/06/09 01:41:49;;;;;;;1.15;1.10;;;22.00;54.10;;;20.13;56.29;100283.38;12245741;19;20042;-77
2022/06/09 01:46:26;;;;;;;1.10;1.10;;;22.00;54.20;;;20.21;56.66;100292.19;12242028;19;20038;-77
2022/06/09 01:50:49;;;;;;;1.20;1.20;;;22.00;54.50;;;20.28;56.52;100305.66;12243283;19;20031;-77
2022/06/09 01:54:54;;;;;;;1.02;1.02;;;22.00;54.50;;;20.20;56.26;100293.19;12242437;19;20007;-77
2022/06/09 01:59:28;;;;;;;0.98;0.98;;;22.10;54.20;;;20.31;56.56;100308.84;12244517;19;20010;-77
2022/06/09 02:03:35;;;;;;;1.40;1.30;;;22.00;54.00;;;20.23;56.26;100297.34;12244550;19;20021;-77
2022/06/09 02:07:41;;;;;;;1.30;1.30;;;22.00;53.80;;;20.24;56.36;100297.19;12238251;19;20042;-77
2022/06/09 02:12:01;;;;;;;1.30;1.20;;;22.00;53.70;;;20.20;56.39;100302.94;12244212;19;20334;-77
2022/06/09 02:16:07;;;;;;;1.52;1.42;;;22.00;53.50;;;20.21;56.23;100315.25;12241874;19;20744;-77
2022/06/09 02:20:11;;;;;;;1.65;1.30;;;22.00;53.60;;;20.21;56.38;100317.88;12240015;19;20023;-77
2022/06/09 02:24:13;;;;;;;1.08;1.08;;;21.90;53.50;;;20.03;56.13;100280.81;12242970;19;20015;-77
2022/06/09 02:28:15;;;;;;;1.17;1.17;;;22.00;53.40;;;20.14;56.50;100304.41;12241190;19;20015;-77
2022/06/09 02:32:17;;;;;;;1.42;1.33;;;21.90;53.50;;;20.15;56.42;100306.09;12241646;19;20018;-77
2022/06/09 02:36:19;;;;;;;1.40;1.30;;;21.90;53.20;;;19.66;56.29;100226.28;12240133;19;20048;-77
2022/06/09 02:40:20;;;;;;;1.42;1.13;;;21.90;53.00;;;20.12;56.15;100301.09;12242492;19;20032;-77
2022/06/09 02:44:22;;;;;;;1.23;1.08;;;21.90;53.00;;;20.06;55.91;100299.06;12240838;19;20011;-77
2022/06/09 02:48:24;;;;;;;0.95;0.95;;;21.90;53.00;;;20.11;56.12;100317.97;12237389;19;20368;-77
2022/06/09 02:52:26;;;;;;;1.20;1.10;;;21.90;53.10;;;20.12;56.01;100314.38;12240412;19;20019;-77
2022/06/09 02:56:28;;;;;;;1.08;1.05;;;22.00;52.70;;;20.05;55.71;100324.75;12239437;19;20476;-77
2022/06/09 03:00:30;;;;;;;1.30;1.20;;;22.00;52.50;;;20.10;56.18;100341.03;12240639;19;20048;-77
2022/06/09 03:04:32;;;;;;;1.20;1.00;;;21.90;52.60;;;19.98;55.89;100322.88;12237951;19;20105;-77
2022/06/09 03:08:34;;;;;;;3.65;1.10;;;21.90;52.60;;;20.08;55.93;100337.69;12236007;19;20022;-78
2022/06/09 03:12:36;;;;;;;0.93;0.80;;;21.90;52.80;;;20.03;55.61;100333.84;12240210;19;20022;-77
2022/06/09 03:16:38;;;;;;;0.88;0.88;;;21.90;52.50;;;20.08;55.65;100344.81;12232622;19;20034;-78
2022/06/09 03:20:40;;;;;;;1.10;1.00;;;21.90;52.70;;;20.13;55.89;100352.31;12238238;19;20089;-77
2022/06/09 03:24:42;;;;;;;0.90;0.90;;;21.90;52.80;;;20.04;55.96;100340.81;12234672;19;20030;-77
2022/06/09 03:28:44;;;;;;;1.48;1.00;;;21.90;53.00;;;20.14;55.68;100357.44;12238650;19;20019;-77
2022/06/09 03:32:46;;;;;;;1.17;1.10;;;21.90;52.60;;;20.07;55.73;100357.25;12236178;19;20107;-77
2022/06/09 03:36:48;;;;;;;0.95;0.80;;;21.80;52.30;;;19.95;55.49;100355.00;12234384;19;20624;-77
2022/06/09 03:40:49;;;;;;;0.73;0.73;;;21.80;52.10;;;20.03;55.74;100385.03;12238345;19;20034;-77
2022/06/09 03:44:51;;;;;;;0.80;0.80;;;21.80;52.00;;;19.86;55.90;100370.00;12233550;19;20374;-77
2022/06/09 03:48:54;;;;;;;1.35;0.80;;;21.80;51.80;;;19.80;55.64;100376.75;12237736;19;20033;-77
2022/06/09 03:52:56;;;;;;;1.50;0.90;;;21.70;51.90;;;19.76;55.63;100369.25;12236361;19;20025;-77
2022/06/09 03:56:58;;;;;;;0.90;0.90;;;21.70;52.10;;;19.80;55.46;100384.69;12233909;19;20018;-77
2022/06/09 04:01:00;;;;;;;0.73;0.73;;;21.60;51.80;;;19.71;55.49;100372.34;12250316;19;20074;-78
2022/06/09 04:05:02;;;;;;;1.17;1.05;;;21.60;51.90;;;19.79;55.64;100384.84;12245796;19;20809;-77
2022/06/09 04:09:04;;;;;;;0.82;0.82;;;21.60;51.90;;;19.77;55.62;100382.38;12248308;19;20423;-77
2022/06/09 04:13:06;;;;;;;0.80;0.80;;;21.60;52.00;;;19.72;55.49;100375.84;12248240;19;20010;-77
2022/06/09 04:17:11;;;;;;;1.35;1.00;;;21.60;52.10;;;19.82;55.67;100403.09;12245347;19;20017;-78
2022/06/09 04:21:13;;;;;;;0.98;0.88;;;21.60;52.10;;;19.87;55.77;100411.41;12249344;19;20470;-77
2022/06/09 04:25:17;;;;;;;0.85;0.70;;;21.90;52.10;;;19.81;55.74;100391.66;12243027;19;20059;-78
2022/06/09 04:29:18;;;;;;;0.88;0.88;;;21.90;52.60;;;19.86;55.88;100401.81;12249369;19;20006;-78
2022/06/09 04:33:20;;;;;;;2.35;1.08;;;21.60;52.70;;;19.91;55.76;100398.72;12241603;19;20034;-78
2022/06/09 04:37:59;;;;;;;1.13;0.90;;;21.70;52.50;;;19.94;55.82;100409.00;12241138;19;20476;-78
2022/06/09 04:41:44;;;;;;;1.23;0.82;;;21.80;52.50;;;19.91;55.96;100401.34;12242292;19;20487;-77
2022/06/09 04:45:46;;;;;;;1.77;1.00;;;21.70;52.20;;;19.99;55.65;100404.91;12235479;19;20014;-77
2022/06/09 04:49:48;;;;;;;0.90;0.90;;;21.70;52.20;;;20.04;55.58;100404.44;12241379;19;20018;-77
2022/06/09 04:53:50;;;;;;;0.88;0.82;;;21.80;52.20;;;20.25;55.56;100426.16;12243163;19;20014;-77
2022/06/09 04:57:52;;;;;;;1.67;0.90;;;21.90;52.20;;;20.30;55.75;100420.34;12239322;19;20018;-77
2022/06/09 05:01:53;;;;;;;1.83;1.08;;;21.90;52.00;;;20.38;55.15;100433.66;12241751;19;20031;-78
2022/06/09 05:05:55;;;;;;;1.15;0.90;;;22.40;51.70;;;20.40;55.24;100436.19;12232563;19;20563;-78
2022/06/09 05:09:57;;;;;;;1.45;0.77;;;22.10;51.60;;;20.48;55.41;100444.19;12235246;19;20021;-77
2022/06/09 05:13:58;;;;;;;2.03;0.98;;;22.20;51.60;;;20.58;55.08;100460.88;12241899;19;20018;-77
2022/06/09 05:18:00;;;;;;;1.08;0.90;;;22.20;51.50;;;20.56;55.28;100433.66;12223453;19;20483;-77
2022/06/09 05:22:02;;;;;;;1.08;0.90;;;22.50;51.50;;;20.62;55.33;100432.19;12234375;19;20035;-77
2022/06/09 05:26:06;;;;;;;3.45;1.00;;;22.40;51.60;;;20.70;54.76;100438.38;12231093;19;20019;-78
2022/06/09 05:30:17;;;;;;;1.08;1.00;;;22.40;51.20;;;20.99;54.75;100466.41;12239526;19;20014;-77
2022/06/09 05:34:19;;;;;;;2.88;1.23;;;22.50;51.30;;;21.03;54.54;100470.41;12238325;19;20054;-78
2022/06/09 05:47:01;;;;;;;1.27;0.70;;;22.80;50.80;;;21.13;54.42;100478.25;12235095;19;20015;-77
2022/06/09 05:51:03;;;;;;;1.13;0.77;;;22.80;50.80;;;21.05;54.55;100468.41;12232073;19;19999;-77
2022/06/09 05:55:05;;;;;;;0.93;0.70;;;22.80;50.80;;;21.12;54.70;100482.75;12236551;19;20044;-78
2022/06/09 05:59:07;;;;;;;1.20;0.90;;;22.90;51.00;;;21.24;54.61;100471.81;12232805;19;20010;-78
2022/06/09 06:03:11;;;;;;;1.52;1.00;;;22.90;50.80;;;21.28;54.38;100478.47;12239956;19;20010;-78
2022/06/09 06:07:14;;;;;;;2.08;0.98;;;23.00;50.70;;;21.37;54.67;100483.69;12232572;19;20430;-78
2022/06/09 06:11:16;;;;;;;1.70;0.80;;;23.00;50.80;;;21.42;54.33;100491.19;12240442;19;20010;-78
2022/06/09 06:15:17;;;;;;;1.40;0.82;;;23.10;50.70;;;21.50;54.25;100507.16;12236774;19;20019;-77
2022/06/09 06:19:20;;;;;;;1.67;0.60;;;23.20;50.40;;;21.41;54.46;100489.50;12238720;19;20039;-78
2022/06/09 06:23:23;;;;;;;0.70;0.70;;;23.20;50.30;;;21.42;54.12;100499.16;12234688;19;20442;-78
2022/06/09 06:27:24;;;;;;;1.15;0.80;;;23.20;50.20;;;21.38;53.99;100489.81;12226909;19;20019;-78
2022/06/09 06:31:26;;;;;;;0.60;0.60;;;23.20;50.10;;;21.47;54.15;100503.97;12219724;19;20042;-77
2022/06/09 06:35:28;;;;;;;1.50;0.75;;;23.30;50.40;;;21.53;53.91;100508.66;12198867;19;20815;-77
2022/06/09 06:39:29;;;;;;;1.08;0.73;;;23.30;50.30;;;21.43;53.81;100480.38;12186304;19;20018;-78
2022/06/09 06:43:32;;;;;;;1.02;0.60;;;23.40;49.60;;;21.55;53.71;100506.66;12236193;19;20356;-79
2022/06/09 06:47:33;;;;;;;0.65;0.60;;;23.40;49.80;;;21.80;53.68;100528.81;12228032;19;20018;-77
2022/06/09 06:51:37;;;;;;;0.75;0.60;;;23.40;49.80;;;21.78;53.52;100514.84;12234249;19;20018;-78
2022/06/09 06:55:40;;;;;;;1.33;0.60;;;23.50;49.90;;;22.08;53.53;100545.31;12230812;19;20011;-76
2022/06/09 06:59:42;;;;;;;0.73;0.60;;;23.60;49.90;;;22.16;53.33;100537.34;12237357;19;20026;-77
2022/06/09 07:03:43;;;;;;;1.05;0.82;;;23.70;50.00;;;22.16;53.22;100505.44;12233400;19;20014;-78
2022/06/09 07:07:45;;;;;;;1.10;0.60;;;23.90;49.50;;;22.43;53.23;100543.38;12231341;19;20535;-77
2022/06/09 07:11:47;;;;;;;0.52;0.50;;;24.00;49.20;;;22.48;52.90;100557.03;12235117;19;20013;-77
2022/06/09 07:15:49;;;;;;;1.33;0.70;;;24.30;49.20;;;22.43;53.26;100554.84;12233440;19;20014;-77
2022/06/09 07:19:51;;;;;;;1.40;0.80;;;24.30;49.00;;;22.40;52.95;100552.53;12236743;19;20020;-77
2022/06/09 07:23:53;;;;;;;0.90;0.60;;;24.10;49.00;;;22.36;53.14;100551.22;12231295;19;20085;-77
2022/06/09 07:27:55;;;;;;;1.20;0.73;;;24.30;49.20;;;22.28;52.99;100552.03;12230996;19;20350;-76
2022/06/09 07:31:58;;;;;;;0.95;0.70;;;24.10;48.90;;;22.34;53.05;100566.50;12232496;19;20098;-77
2022/06/09 07:36:02;;;;;;;0.50;0.50;;;24.10;48.90;;;22.33;53.08;100561.34;12240106;19;20053;-77
2022/06/09 07:40:05;;;;;;;0.57;0.57;;;24.10;49.40;;;22.45;52.87;100568.00;12244567;19;20047;-77
2022/06/09 07:44:09;;;;;;;1.80;0.70;;;24.10;49.00;;;22.57;53.33;100587.97;12243749;19;20517;-76
2022/06/09 07:48:11;;;;;;;2.25;0.70;;;24.20;49.00;;;22.65;52.89;100569.31;12240424;19;20034;-77
2022/06/09 07:52:13;;;;;;;0.43;0.43;;;24.30;49.00;;;22.88;52.47;100598.78;12244270;19;20010;-77
2022/06/09 07:56:15;;;;;;;1.75;0.55;;;24.40;48.90;;;22.95;52.42;100586.47;12242613;19;20014;-77
2022/06/09 08:00:19;;;;;;;0.90;0.55;;;24.50;48.70;;;23.04;52.17;100597.97;12245775;19;20026;-77
2022/06/09 08:04:21;;;;;;;1.73;0.80;;;24.60;48.80;;;22.89;52.56;100575.63;12243818;19;20338;-77
2022/06/09 08:08:23;;;;;;;0.90;0.65;;;24.70;48.60;;;22.97;52.06;100616.44;12238868;19;20295;-77
2022/06/09 08:12:25;;;;;;;1.48;0.60;;;24.70;48.20;;;22.98;52.34;100625.28;12247403;19;20030;-77
2022/06/09 08:16:28;;;;;;;0.75;0.75;;;24.70;48.10;;;22.98;51.96;100635.94;12242130;19;20007;-76
2022/06/09 08:20:33;;;;;;;0.68;0.50;;;24.70;47.80;;;22.63;52.40;100597.09;12245985;19;20010;-77
2022/06/09 08:24:34;;;;;;;1.35;0.82;;;24.80;48.10;;;22.78;52.17;100631.91;12242787;19;20010;-77
2022/06/09 08:28:36;;;;;;;0.60;0.60;;;24.70;48.10;;;22.61;52.49;100631.06;12243108;19;20006;-76
2022/06/09 08:32:39;;;;;;;1.25;0.55;;;24.70;48.10;;;22.60;52.49;100637.38;12242352;19;20046;-77
2022/06/09 08:36:41;;;;;;;0.50;0.50;;;24.70;48.20;;;22.48;52.43;100636.88;12239320;19;20487;-76
2022/06/09 08:41:41;;;;;;;0.35;0.35;;;24.40;48.00;;;22.56;52.44;100676.81;12241346;19;20014;-76
2022/06/09 08:45:45;;;;;;;0.55;0.55;;;24.30;47.90;;;22.42;52.37;100674.78;12237039;19;20041;-76
2022/06/09 08:50:15;;;;;;;0.70;0.47;;;24.30;47.90;;;22.38;52.52;100687.56;12241711;19;20345;-76
2022/06/09 08:54:27;;;;;;;1.30;0.68;;;24.20;48.10;;;22.20;52.51;100670.91;12243517;19;20022;-77
2022/06/09 08:58:30;;;;;;;4.22;0.60;;;24.10;48.20;;;22.28;52.57;100693.06;12241512;19;20526;-77
2022/06/09 09:02:41;;;;;;;1.30;0.60;;;24.10;48.10;;;22.22;52.47;100684.88;12236422;19;20015;-76
2022/06/09 09:07:07;;;;;;;0.88;0.65;;;24.00;48.30;;;22.12;52.52;100676.19;12238979;19;20010;-77
2022/06/09 09:11:43;;;;;;;3.53;1.25;;;23.90;48.20;;;22.19;52.57;100701.97;12239735;19;20014;-78
2022/06/09 09:15:53;;;;;;;1.45;0.50;;;23.90;48.40;;;22.14;52.50;100706.09;12239330;19;20094;-77
2022/06/09 09:20:15;;;;;;;1.20;0.82;;;23.90;48.50;;;22.05;52.53;100698.06;12241208;19;20026;-77
2022/06/09 09:24:44;;;;;;;1.40;0.80;;;23.80;48.30;;;22.04;52.73;100715.03;12239368;19;20014;-77
2022/06/09 09:28:55;;;;;;;1.27;0.70;;;23.80;48.50;;;21.87;52.65;100698.19;12238485;19;20048;-78
2022/06/09 09:32:57;;;;;;;0.60;0.60;;;23.90;48.60;;;21.86;52.36;100699.16;12240335;19;20021;-80
2022/06/09 09:37:20;;;;;;;1.45;0.70;;;23.70;48.80;;;21.76;52.68;100701.09;12235690;19;20022;-80
2022/06/09 09:41:36;;;;;;;1.85;0.77;;;23.70;48.60;;;21.88;52.85;100725.59;12240685;19;20022;-79
2022/06/09 09:45:48;;;;;;;1.65;0.77;;;23.60;48.90;;;21.80;52.75;100721.06;12234934;19;20792;-80
2022/06/09 09:49:52;;;;;;;0.88;0.63;;;23.60;48.90;;;21.71;52.70;100723.81;12239277;19;20026;-80
2022/06/09 09:53:56;;;;;;;0.70;0.70;;;23.50;49.00;;;21.71;52.83;100722.03;12241278;19;20405;-80
2022/06/09 09:58:16;;;;;;;4.25;0.82;;;23.50;49.30;;;;;;12231698;19;20081;-78
2022/06/09 10:15:43;;;;;;;0.80;0.80;;;23.60;49.70;;;22.09;52.99;100759.78;12233439;19;20022;-80
2022/06/09 10:20:00;;;;;;;0.80;0.80;;;23.70;49.70;;;22.06;52.94;100755.63;12230718;19;20018;-80
2022/06/09 10:24:08;;;;;;;1.35;0.82;;;23.70;49.50;;;22.18;52.62;100768.63;12231753;19;20056;-80
2022/06/09 10:28:39;;;;;;;0.85;0.85;;;23.80;49.70;;;22.09;53.03;100759.78;12231405;19;20089;-80
2022/06/09 10:32:54;;;;;;;0.90;0.70;;;23.80;49.50;;;22.23;53.16;100787.63;12236294;19;20022;-80
2022/06/09 10:37:33;;;;;;;0.63;0.63;;;23.80;49.40;;;22.27;52.83;100788.97;12232428;19;20014;-81
2022/06/09 10:41:53;;;;;;;1.77;0.90;;;23.90;49.30;;;22.19;52.76;100778.28;12235975;19;20023;-80
2022/06/09 10:46:34;;;;;;;1.75;1.00;;;24.00;49.30;;;22.26;52.98;100797.97;12230939;19;20463;-79
2022/06/09 10:55:28;;;;;;;2.55;1.02;;;24.00;49.50;;;22.26;53.04;100793.47;12230484;19;20038;-79
2022/06/09 11:00:05;;;;;;;1.10;0.90;;;23.90;49.50;;;22.35;52.81;100806.81;12236261;19;20391;-79
2022/06/09 11:04:17;;;;;;;1.58;0.90;;;24.00;49.50;;;22.35;52.67;100798.81;12234452;19;20022;-78
2022/06/09 11:08:40;;;;;;;1.67;1.30;;;24.00;49.50;;;22.36;52.72;100798.69;12228651;19;20022;-78
2022/06/09 11:13:15;;;;;;;1.00;0.95;;;24.00;49.50;;;22.46;52.99;100819.81;12231268;19;20014;-78
2022/06/09 11:17:46;;;;;;;2.05;1.00;;;24.10;49.50;;;22.46;52.84;100820.66;12233011;19;20411;-79
2022/06/09 11:22:07;;;;;;;2.85;0.90;;;24.10;49.40;;;22.27;52.83;100789.81;12233672;19;20488;-78
2022/06/09 11:26:30;;;;;;;0.90;0.90;;;24.10;49.50;;;22.51;52.81;100826.34;12231283;19;20036;-78
2022/06/09 11:31:00;;;;;;;1.40;0.93;;;24.10;49.10;;;22.53;52.85;100820.88;12232082;19;20024;-78
2022/06/09 11:35:19;;;;;;;1.70;0.75;;;24.10;49.10;;;22.58;52.71;100823.88;12233490;19;20038;-79
2022/06/09 11:39:33;;;;;;;3.17;1.02;;;24.20;49.40;;;22.57;52.88;100814.22;12233293;19;20078;-78
2022/06/09 11:43:57;;;;;;;1.58;1.00;;;24.20;49.20;;;22.64;52.42;100819.75;12232008;19;20022;-79
2022/06/09 11:48:05;;;;;;;1.67;1.13;;;24.30;49.00;;;22.56;52.75;100804.56;12230241;19;20007;-78
2022/06/09 11:52:16;;;;;;;1.13;1.10;;;24.30;49.00;;;22.54;52.42;100796.72;12233117;19;20010;-78
2022/06/09 11:56:40;;;;;;;3.58;1.52;;;24.40;48.70;;;22.58;52.32;100810.56;12230018;19;20396;-78
2022/06/09 12:00:42;;;;;;;1.27;1.00;;;24.30;48.80;;;22.55;52.64;100808.25;12233516;19;20026;-78
2022/06/09 12:05:08;;;;;;;1.38;1.27;;;24.30;48.80;;;22.67;52.62;100825.56;12232657;19;20483;-78
2022/06/09 12:09:41;;;;;;;1.20;1.10;;;24.30;48.90;;;22.63;52.62;100812.72;12229185;19;20030;-78
2022/06/09 12:13:57;;;;;;;1.48;1.23;;;24.30;48.70;;;22.74;52.41;100823.09;12229818;19;20014;-78
2022/06/09 12:18:16;;;;;;;1.80;1.20;;;24.40;48.90;;;22.77;52.60;100833.44;12227410;19;20041;-78
2022/06/09 12:22:49;;;;;;;2.38;1.33;;;24.40;48.90;;;22.68;52.25;100819.28;12243707;19;20477;-78
2022/06/09 12:27:01;;;;;;;1.35;1.30;;;24.40;48.60;;;22.52;52.29;100798.75;12238632;19;20031;-78
2022/06/09 12:31:15;;;;;;;2.20;1.48;;;24.50;48.60;;;22.59;52.38;100814.88;12244440;19;20030;-78
2022/06/09 12:35:34;;;;;;;1.58;1.48;;;24.40;48.20;;;22.72;52.28;100838.41;12239730;19;20027;-78
2022/06/09 12:39:41;;;;;;;2.25;1.50;;;24.30;48.10;;;22.68;52.07;100837.91;12242251;19;20015;-78
2022/06/09 12:43:53;;;;;;;2.95;1.60;;;24.40;48.20;;;22.66;51.90;100842.53;12239983;19;20082;-78
2022/06/09 12:48:11;;;;;;;3.30;1.48;;;24.50;48.60;;;22.70;52.01;100845.72;12237765;19;20015;-78
2022/06/09 12:52:43;;;;;;;1.80;1.33;;;24.40;48.80;;;22.60;52.09;100839.69;12224306;19;20014;-77
2022/06/09 12:57:00;;;;;;;1.92;1.70;;;24.40;48.80;;;22.75;52.22;100868.19;12237069;19;20019;-78
2022/06/09 13:01:05;;;;;;;1.92;1.52;;;24.40;48.90;;;22.73;52.49;100862.19;12243915;19;20042;-78
2022/06/09 13:05:13;;;;;;;3.03;1.20;;;24.40;48.70;;;22.79;52.26;100876.72;12240191;19;20025;-78
2022/06/09 13:09:33;;;;;;;1.50;1.40;;;24.40;48.60;;;22.46;51.93;100815.34;12237261;19;20011;-78
2022/06/09 13:13:42;;;;;;;1.33;1.20;;;24.40;48.50;;;22.69;52.27;100852.03;12241634;19;20035;-78
2022/06/09 13:17:44;;;;;;;1.83;1.38;;;24.50;48.60;;;22.77;52.16;100870.72;12231208;19;20063;-78
2022/06/09 13:21:48;;;;;;;1.60;1.48;;;24.50;48.70;;;22.70;51.93;100857.19;12240119;19;20027;-77
2022/06/09 13:25:50;;;;;;;3.50;1.60;;;24.50;48.60;;;22.71;51.95;100855.34;12232493;19;20484;-77
2022/06/09 13:30:09;;;;;;;2.08;1.45;;;24.50;48.80;;;22.79;52.27;100868.72;12238818;19;20504;-78
2022/06/09 13:34:13;;;;;;;1.27;1.17;;;24.50;48.80;;;22.95;52.02;100890.09;12237239;19;20389;-78
2022/06/09 13:38:33;;;;;;;4.43;1.88;;;24.60;48.80;;;22.93;52.24;100881.41;12236128;19;20039;-78
2022/06/09 13:43:00;;;;;;;7.53;1.40;;;24.60;48.80;;;22.94;52.35;100882.25;12237048;19;20022;-78
2022/06/09 13:47:35;;;;;;;2.63;1.63;;;24.60;48.70;;;22.96;52.12;100888.28;12235179;19;20011;-78
2022/06/09 13:52:03;;;;;;;1.38;1.23;;;24.60;48.50;;;23.01;52.31;100893.09;12238434;19;20020;-78
2022/06/09 13:56:08;;;;;;;2.13;1.50;;;24.70;48.70;;;22.70;52.20;100840.38;12235445;19;20022;-78
2022/06/09 14:00:46;;;;;;;3.60;1.90;;;24.70;48.70;;;23.03;52.20;100904.44;12237140;19;20187;-78
2022/06/09 14:04:50;;;;;;;2.50;1.50;;;24.70;48.50;;;22.95;52.14;100898.09;12237681;19;20043;-78
2022/06/09 14:08:53;;;;;;;2.78;1.73;;;24.70;48.60;;;22.97;52.20;100905.91;12233909;19;20105;-78
2022/06/09 14:12:56;;;;;;;1.75;1.55;;;24.70;48.40;;;22.88;51.85;100888.22;12238011;19;20002;-78
2022/06/09 14:16:58;;;;;;;2.20;1.40;;;24.70;48.60;;;22.90;51.82;100896.88;12232305;19;21532;-78
2022/06/09 14:21:00;;;;;;;2.25;1.67;;;24.70;48.70;;;23.05;52.01;100916.59;12237594;19;20017;-78
2022/06/09 14:25:02;;;;;;;1.90;1.52;;;24.70;48.70;;;22.97;51.83;100904.09;12233132;19;20015;-78
2022/06/09 14:29:08;;;;;;;3.30;1.45;;;24.70;48.60;;;22.97;52.26;100903.25;12236134;19;20018;-78
2022/06/09 14:33:13;;;;;;;2.33;1.70;;;24.70;48.50;;;23.14;52.14;100926.31;12237383;19;20011;-78
2022/06/09 14:37:15;;;;;;;1.70;1.60;;;24.80;48.40;;;23.07;52.16;100905.81;12233571;19;20101;-78
2022/06/09 14:41:18;;;;;;;1.73;1.60;;;24.80;48.60;;;22.88;52.06;100875.75;12236490;19;20111;-78
2022/06/09 14:45:21;;;;;;;1.80;1.70;;;25.10;48.10;;;23.08;51.68;100899.47;12224531;19;20048;-78
2022/06/09 14:49:23;;;;;;;2.40;2.20;;;25.10;48.00;;;23.15;51.86;100911.16;12225385;19;20106;-78
2022/06/09 14:53:25;;;;;;;2.85;1.75;;;24.90;47.70;;;23.22;51.79;100919.31;12231867;19;20391;-78
2022/06/09 14:57:27;;;;;;;2.00;1.80;;;24.90;47.80;;;23.21;51.48;100915.00;12231621;19;20033;-78
2022/06/09 15:01:30;;;;;;;4.22;2.38;;;24.90;47.80;;;23.25;51.54;100921.66;12235679;19;20015;-77
2022/06/09 15:05:32;;;;;;;2.58;2.38;;;24.90;47.60;;;23.24;51.61;100928.81;12229926;19;20532;-77
2022/06/09 15:09:33;;;;;;;2.22;1.85;;;25.00;47.50;;;23.26;51.48;100918.00;12234333;19;20364;-79
2022/06/09 15:13:35;;;;;;;3.75;1.92;;;25.10;47.40;;;23.23;51.25;100913.84;12226529;19;20042;-78
2022/06/09 15:17:37;;;;;;;3.78;1.90;;;25.10;47.40;;;23.38;51.45;100941.50;12221470;19;20015;-77
2022/06/09 15:21:39;;;;;;;2.60;2.40;;;25.10;47.40;;;23.39;51.38;100945.84;12227588;19;20030;-78
2022/06/09 15:25:42;;;;;;;2.05;1.70;;;25.30;47.30;;;23.37;50.87;100933.69;12227683;19;20093;-77
2022/06/09 15:29:44;;;;;;;2.75;2.13;;;25.30;47.30;;;23.24;50.78;100910.16;12230420;19;20094;-78
2022/06/09 15:33:45;;;;;;;2.03;1.88;;;25.00;47.10;;;23.12;50.93;100882.19;12228698;19;20022;-79
2022/06/09 15:37:49;;;;;;;3.17;2.38;;;25.00;47.20;;;23.31;51.06;100910.38;12224709;19;20018;-79
2022/06/09 15:41:51;;;;;;;2.95;2.00;;;25.10;47.10;;;23.36;50.69;100932.84;12214072;19;20018;-78
2022/06/09 15:45:53;;;;;;;5.35;2.58;;;25.10;47.00;;;23.35;50.75;100927.69;12211418;19;20799;-79
2022/06/09 15:49:54;;;;;;;3.58;1.85;;;25.10;46.80;;;23.37;50.95;100931.84;12218634;19;20010;-79
2022/06/09 15:53:56;;;;;;;2.22;2.03;;;25.10;46.70;;;23.39;50.47;100940.53;12219585;19;20130;-78
2022/06/09 15:57:57;;;;;;;5.03;2.38;;;25.10;46.70;;;23.39;50.57;100935.19;12225189;19;20018;-79
2022/06/09 16:02:11;;;;;;;3.60;2.15;;;25.10;46.90;;;23.52;50.66;100952.53;12230384;19;20018;-79
2022/06/09 16:06:13;;;;;;;3.13;2.17;;;25.10;47.00;;;23.57;50.90;100944.88;12232140;19;20052;-78
2022/06/09 16:10:23;;;;;;;3.97;2.47;;;25.20;47.20;;;23.52;50.42;100916.06;12233208;19;20015;-79
2022/06/09 16:14:24;;;;;;;2.38;2.17;;;25.20;46.80;;;23.69;50.58;100943.56;12235915;19;20074;-78
2022/06/09 16:18:29;;;;;;;3.92;2.35;;;25.30;46.70;;;23.69;50.36;100940.91;12229446;19;20023;-78
2022/06/09 16:22:31;;;;;;;2.40;2.20;;;25.40;46.70;;;23.71;50.44;100943.41;12232980;19;20015;-78
2022/06/09 16:26:32;;;;;;;2.78;1.98;;;25.40;46.60;;;23.75;50.10;100942.13;12227600;19;20006;-78
2022/06/09 16:30:34;;;;;;;3.28;2.03;;;25.50;46.30;;;23.78;50.38;100945.28;12230636;19;20010;-78
2022/06/09 16:34:36;;;;;;;3.72;2.17;;;25.50;46.30;;;23.93;50.40;100985.47;12231904;19;20121;-78
2022/06/09 16:38:38;;;;;;;2.40;2.15;;;25.60;46.20;;;23.82;50.36;100978.63;12229402;19;20034;-78
2022/06/09 16:42:40;;;;;;;2.92;2.03;;;25.70;46.30;;;23.88;50.30;100986.97;12232011;19;20029;-78
2022/06/09 16:46:42;;;;;;;2.17;1.98;;;25.60;46.00;;;23.81;49.81;100971.59;12228367;19;20483;-78
2022/06/09 16:50:43;;;;;;;3.03;2.35;;;25.60;46.00;;;23.97;49.76;101001.97;12232010;19;20015;-79
2022/06/09 16:54:45;;;;;;;2.92;2.13;;;25.60;46.00;;;23.85;49.96;100980.97;12229100;19;20018;-78
2022/06/09 16:58:47;;;;;;;3.58;2.40;;;25.90;46.10;;;23.95;49.76;100990.63;12232484;19;20018;-79
2022/06/09 17:02:50;;;;;;;4.40;2.20;;;25.60;45.90;;;24.00;49.67;101004.31;12229271;19;20015;-79
2022/06/09 17:06:55;;;;;;;2.53;2.10;;;25.60;46.10;;;24.00;49.58;101009.66;12225838;19;20014;-79
2022/06/09 17:10:57;;;;;;;2.15;1.92;;;25.70;46.00;;;23.89;50.07;100991.28;12226576;19;20018;-79
2022/06/09 17:14:59;;;;;;;2.67;2.40;;;25.70;46.00;;;23.99;49.96;101013.31;12230160;19;20098;-79
2022/06/09 17:19:05;;;;;;;3.00;2.53;;;25.70;45.90;;;23.93;49.60;101006.00;12228847;19;20022;-78
2022/06/09 17:23:12;;;;;;;1.97;1.87;;;25.80;46.00;;;23.82;49.67;100999.97;12227978;19;20018;-79
2022/06/09 17:27:13;;;;;;;3.20;2.38;;;25.70;46.00;;;23.97;49.96;101034.00;12224888;19;20014;-79
2022/06/09 17:31:15;;;;;;;4.03;2.30;;;25.90;46.10;;;23.91;49.89;101030.16;12229197;19;20014;-79